sensor_id;sensor_type;location;lat;lon;timestamp;P1;durP1;ratioP1;P2;durP2;ratioP2
2259;SDS011;333;48.800;9.530;2022-10-31T00:01:15;13.53;;;10.07;;
2259;SDS011;333;48.800;9.530;2022-10-31T00:03:44;10.27;;;9.27;;
2259;SDS011;333;48.800;9.530;2022-10-31T00:06:12;11.83;;;8.10;;
2259;SDS011;333;48.800;9.530;2022-10-31T00:08:39;13.97;;;9.70;;
2259;SDS011;333;48.800;9.530;2022-10-31T00:11:08;15.23;;;9.53;;
2259;SDS011;333;48.800;9.530;2022-10-31T00:13:35;11.93;;;9.13;;
2259;SDS011;333;48.800;9.530;2022-10-31T00:16:02;13.30;;;9.23;;
2259;SDS011;333;48.800;9.530;2022-10-31T00:18:29;14.20;;;9.80;;
2259;SDS011;333;48.800;9.530;2022-10-31T00:21:01;13.77;;;9.27;;
2259;SDS011;333;48.800;9.530;2022-10-31T00:23:29;11.70;;;9.10;;
2259;SDS011;333;48.800;9.530;2022-10-31T00:25:59;13.23;;;9.97;;
2259;SDS011;333;48.800;9.530;2022-10-31T00:28:26;9.33;;;8.07;;
2259;SDS011;333;48.800;9.530;2022-10-31T00:30:57;12.60;;;9.83;;
2259;SDS011;333;48.800;9.530;2022-10-31T00:33:24;10.80;;;8.83;;
2259;SDS011;333;48.800;9.530;2022-10-31T00:35:52;10.70;;;9.23;;
2259;SDS011;333;48.800;9.530;2022-10-31T00:38:20;13.27;;;8.23;;
2259;SDS011;333;48.800;9.530;2022-10-31T00:40:47;12.93;;;9.30;;
2259;SDS011;333;48.800;9.530;2022-10-31T00:43:14;10.03;;;8.30;;
2259;SDS011;333;48.800;9.530;2022-10-31T00:45:42;14.33;;;8.77;;
2259;SDS011;333;48.800;9.530;2022-10-31T00:48:09;8.80;;;7.37;;
2259;SDS011;333;48.800;9.530;2022-10-31T00:50:36;9.03;;;7.93;;
2259;SDS011;333;48.800;9.530;2022-10-31T00:53:04;10.37;;;9.27;;
2259;SDS011;333;48.800;9.530;2022-10-31T00:55:33;9.00;;;8.10;;
2259;SDS011;333;48.800;9.530;2022-10-31T00:58:00;9.50;;;7.80;;
2259;SDS011;333;48.800;9.530;2022-10-31T01:00:27;9.60;;;7.90;;
2259;SDS011;333;48.800;9.530;2022-10-31T01:02:54;10.13;;;7.37;;
2259;SDS011;333;48.800;9.530;2022-10-31T01:05:21;9.47;;;8.40;;
2259;SDS011;333;48.800;9.530;2022-10-31T01:07:49;10.87;;;7.70;;
2259;SDS011;333;48.800;9.530;2022-10-31T01:10:16;7.70;;;7.00;;
2259;SDS011;333;48.800;9.530;2022-10-31T01:12:45;10.20;;;7.53;;
2259;SDS011;333;48.800;9.530;2022-10-31T01:15:14;10.60;;;7.00;;
2259;SDS011;333;48.800;9.530;2022-10-31T01:17:41;7.40;;;6.40;;
2259;SDS011;333;48.800;9.530;2022-10-31T01:20:09;11.80;;;8.33;;
2259;SDS011;333;48.800;9.530;2022-10-31T01:22:37;10.90;;;6.90;;
2259;SDS011;333;48.800;9.530;2022-10-31T01:25:05;7.97;;;6.73;;
2259;SDS011;333;48.800;9.530;2022-10-31T01:27:32;10.57;;;7.70;;
2259;SDS011;333;48.800;9.530;2022-10-31T01:30:01;8.50;;;6.83;;
2259;SDS011;333;48.800;9.530;2022-10-31T01:32:28;10.80;;;7.57;;
2259;SDS011;333;48.800;9.530;2022-10-31T01:34:56;7.93;;;7.13;;
2259;SDS011;333;48.800;9.530;2022-10-31T01:37:23;14.00;;;7.47;;
2259;SDS011;333;48.800;9.530;2022-10-31T01:39:50;8.63;;;6.60;;
2259;SDS011;333;48.800;9.530;2022-10-31T01:42:18;13.43;;;7.50;;
2259;SDS011;333;48.800;9.530;2022-10-31T01:44:56;7.60;;;6.80;;
2259;SDS011;333;48.800;9.530;2022-10-31T01:47:29;8.43;;;6.30;;
2259;SDS011;333;48.800;9.530;2022-10-31T01:49:57;7.30;;;6.60;;
2259;SDS011;333;48.800;9.530;2022-10-31T01:52:27;16.00;;;7.90;;
2259;SDS011;333;48.800;9.530;2022-10-31T01:54:55;10.97;;;7.70;;
2259;SDS011;333;48.800;9.530;2022-10-31T01:57:24;7.23;;;6.53;;
2259;SDS011;333;48.800;9.530;2022-10-31T01:59:52;10.50;;;7.03;;
2259;SDS011;333;48.800;9.530;2022-10-31T02:02:20;9.07;;;6.30;;
2259;SDS011;333;48.800;9.530;2022-10-31T02:04:49;8.23;;;7.00;;
2259;SDS011;333;48.800;9.530;2022-10-31T02:07:17;7.73;;;6.93;;
2259;SDS011;333;48.800;9.530;2022-10-31T02:09:46;7.10;;;6.13;;
2259;SDS011;333;48.800;9.530;2022-10-31T02:12:14;8.87;;;6.40;;
2259;SDS011;333;48.800;9.530;2022-10-31T02:14:41;8.77;;;6.80;;
2259;SDS011;333;48.800;9.530;2022-10-31T02:17:09;8.50;;;7.00;;
2259;SDS011;333;48.800;9.530;2022-10-31T02:19:38;10.30;;;7.47;;
2259;SDS011;333;48.800;9.530;2022-10-31T02:22:09;12.10;;;7.60;;
2259;SDS011;333;48.800;9.530;2022-10-31T02:24:45;8.53;;;7.20;;
2259;SDS011;333;48.800;9.530;2022-10-31T02:27:18;10.10;;;7.73;;
2259;SDS011;333;48.800;9.530;2022-10-31T02:29:53;8.60;;;6.50;;
2259;SDS011;333;48.800;9.530;2022-10-31T02:32:25;11.33;;;7.67;;
2259;SDS011;333;48.800;9.530;2022-10-31T02:34:56;12.23;;;7.23;;
2259;SDS011;333;48.800;9.530;2022-10-31T02:37:25;9.43;;;7.03;;
2259;SDS011;333;48.800;9.530;2022-10-31T02:39:55;9.03;;;8.13;;
2259;SDS011;333;48.800;9.530;2022-10-31T02:42:25;9.17;;;6.77;;
2259;SDS011;333;48.800;9.530;2022-10-31T02:44:54;14.90;;;7.10;;
2259;SDS011;333;48.800;9.530;2022-10-31T02:47:23;7.93;;;6.73;;
2259;SDS011;333;48.800;9.530;2022-10-31T02:49:55;10.30;;;7.40;;
2259;SDS011;333;48.800;9.530;2022-10-31T02:52:24;7.60;;;6.80;;
2259;SDS011;333;48.800;9.530;2022-10-31T02:54:52;12.90;;;8.03;;
2259;SDS011;333;48.800;9.530;2022-10-31T02:57:20;13.63;;;6.23;;
2259;SDS011;333;48.800;9.530;2022-10-31T02:59:55;7.60;;;6.83;;
2259;SDS011;333;48.800;9.530;2022-10-31T03:02:28;8.57;;;7.10;;
2259;SDS011;333;48.800;9.530;2022-10-31T03:07:56;7.37;;;6.60;;
2259;SDS011;333;48.800;9.530;2022-10-31T03:10:26;8.60;;;7.20;;
2259;SDS011;333;48.800;9.530;2022-10-31T03:12:56;8.87;;;6.67;;
2259;SDS011;333;48.800;9.530;2022-10-31T03:15:27;7.83;;;6.70;;
2259;SDS011;333;48.800;9.530;2022-10-31T03:17:56;7.93;;;7.13;;
2259;SDS011;333;48.800;9.530;2022-10-31T03:20:26;6.60;;;6.00;;
2259;SDS011;333;48.800;9.530;2022-10-31T03:22:56;10.60;;;7.37;;
2259;SDS011;333;48.800;9.530;2022-10-31T03:25:24;9.53;;;8.20;;
2259;SDS011;333;48.800;9.530;2022-10-31T03:27:51;14.93;;;6.77;;
2259;SDS011;333;48.800;9.530;2022-10-31T03:30:19;7.27;;;6.40;;
2259;SDS011;333;48.800;9.530;2022-10-31T03:32:47;11.97;;;6.53;;
2259;SDS011;333;48.800;9.530;2022-10-31T03:35:15;10.10;;;6.80;;
2259;SDS011;333;48.800;9.530;2022-10-31T03:37:44;7.47;;;6.53;;
2259;SDS011;333;48.800;9.530;2022-10-31T03:40:13;8.17;;;6.57;;
2259;SDS011;333;48.800;9.530;2022-10-31T03:42:42;7.83;;;7.03;;
2259;SDS011;333;48.800;9.530;2022-10-31T03:45:11;10.80;;;6.47;;
2259;SDS011;333;48.800;9.530;2022-10-31T03:47:40;8.63;;;7.27;;
2259;SDS011;333;48.800;9.530;2022-10-31T03:50:08;12.10;;;6.77;;
2259;SDS011;333;48.800;9.530;2022-10-31T03:52:36;16.03;;;6.40;;
2259;SDS011;333;48.800;9.530;2022-10-31T03:55:07;9.90;;;6.90;;
2259;SDS011;333;48.800;9.530;2022-10-31T03:57:38;8.03;;;6.63;;
2259;SDS011;333;48.800;9.530;2022-10-31T04:00:07;12.33;;;7.13;;
2259;SDS011;333;48.800;9.530;2022-10-31T04:02:36;9.77;;;7.57;;
2259;SDS011;333;48.800;9.530;2022-10-31T04:05:05;8.10;;;6.23;;
2259;SDS011;333;48.800;9.530;2022-10-31T04:07:34;8.47;;;6.63;;
2259;SDS011;333;48.800;9.530;2022-10-31T04:10:04;11.30;;;7.27;;
2259;SDS011;333;48.800;9.530;2022-10-31T04:12:32;9.30;;;7.00;;
2259;SDS011;333;48.800;9.530;2022-10-31T04:15:01;6.37;;;5.70;;
2259;SDS011;333;48.800;9.530;2022-10-31T04:17:29;9.10;;;6.30;;
2259;SDS011;333;48.800;9.530;2022-10-31T04:19:58;6.80;;;6.20;;
2259;SDS011;333;48.800;9.530;2022-10-31T04:22:26;7.33;;;5.90;;
2259;SDS011;333;48.800;9.530;2022-10-31T04:24:53;8.60;;;6.77;;
2259;SDS011;333;48.800;9.530;2022-10-31T04:27:20;6.30;;;5.57;;
2259;SDS011;333;48.800;9.530;2022-10-31T04:29:48;10.33;;;6.77;;
2259;SDS011;333;48.800;9.530;2022-10-31T04:32:16;6.07;;;5.47;;
2259;SDS011;333;48.800;9.530;2022-10-31T04:34:43;8.83;;;6.33;;
2259;SDS011;333;48.800;9.530;2022-10-31T04:37:10;5.80;;;5.20;;
2259;SDS011;333;48.800;9.530;2022-10-31T04:39:38;7.13;;;6.40;;
2259;SDS011;333;48.800;9.530;2022-10-31T04:42:05;9.00;;;6.93;;
2259;SDS011;333;48.800;9.530;2022-10-31T04:44:32;7.83;;;6.13;;
2259;SDS011;333;48.800;9.530;2022-10-31T04:46:59;10.37;;;6.70;;
2259;SDS011;333;48.800;9.530;2022-10-31T04:49:28;16.00;;;7.33;;
2259;SDS011;333;48.800;9.530;2022-10-31T04:51:55;8.73;;;6.70;;
2259;SDS011;333;48.800;9.530;2022-10-31T04:54:22;7.83;;;6.70;;
2259;SDS011;333;48.800;9.530;2022-10-31T04:56:49;8.27;;;6.13;;
2259;SDS011;333;48.800;9.530;2022-10-31T04:59:16;10.27;;;5.63;;
2259;SDS011;333;48.800;9.530;2022-10-31T05:01:44;9.17;;;6.17;;
2259;SDS011;333;48.800;9.530;2022-10-31T05:04:11;13.23;;;6.93;;
2259;SDS011;333;48.800;9.530;2022-10-31T05:06:39;7.43;;;6.30;;
2259;SDS011;333;48.800;9.530;2022-10-31T05:09:06;6.10;;;5.50;;
2259;SDS011;333;48.800;9.530;2022-10-31T05:11:34;7.50;;;6.27;;
2259;SDS011;333;48.800;9.530;2022-10-31T05:14:01;7.93;;;7.10;;
2259;SDS011;333;48.800;9.530;2022-10-31T05:16:28;8.27;;;7.40;;
2259;SDS011;333;48.800;9.530;2022-10-31T05:18:55;9.07;;;6.37;;
2259;SDS011;333;48.800;9.530;2022-10-31T05:21:22;6.70;;;5.87;;
2259;SDS011;333;48.800;9.530;2022-10-31T05:23:51;7.80;;;6.40;;
2259;SDS011;333;48.800;9.530;2022-10-31T05:26:18;7.73;;;7.00;;
2259;SDS011;333;48.800;9.530;2022-10-31T05:28:45;8.60;;;6.73;;
2259;SDS011;333;48.800;9.530;2022-10-31T05:31:12;10.53;;;7.67;;
2259;SDS011;333;48.800;9.530;2022-10-31T05:33:40;7.60;;;6.00;;
2259;SDS011;333;48.800;9.530;2022-10-31T05:36:07;8.23;;;6.70;;
2259;SDS011;333;48.800;9.530;2022-10-31T05:38:34;9.97;;;6.20;;
2259;SDS011;333;48.800;9.530;2022-10-31T05:41:03;7.53;;;6.80;;
2259;SDS011;333;48.800;9.530;2022-10-31T05:43:30;7.30;;;6.13;;
2259;SDS011;333;48.800;9.530;2022-10-31T05:45:57;8.70;;;6.20;;
2259;SDS011;333;48.800;9.530;2022-10-31T05:48:24;8.77;;;7.00;;
2259;SDS011;333;48.800;9.530;2022-10-31T05:50:52;7.50;;;6.30;;
2259;SDS011;333;48.800;9.530;2022-10-31T05:53:19;9.73;;;6.33;;
2259;SDS011;333;48.800;9.530;2022-10-31T05:55:46;8.60;;;6.63;;
2259;SDS011;333;48.800;9.530;2022-10-31T05:58:15;10.00;;;6.40;;
2259;SDS011;333;48.800;9.530;2022-10-31T06:00:42;10.80;;;6.93;;
2259;SDS011;333;48.800;9.530;2022-10-31T06:03:09;8.43;;;7.63;;
2259;SDS011;333;48.800;9.530;2022-10-31T06:05:36;7.03;;;5.67;;
2259;SDS011;333;48.800;9.530;2022-10-31T06:08:04;7.43;;;6.63;;
2259;SDS011;333;48.800;9.530;2022-10-31T06:10:31;7.77;;;6.47;;
2259;SDS011;333;48.800;9.530;2022-10-31T06:12:58;7.83;;;6.67;;
2259;SDS011;333;48.800;9.530;2022-10-31T06:15:27;10.83;;;6.90;;
2259;SDS011;333;48.800;9.530;2022-10-31T06:17:57;7.67;;;6.90;;
2259;SDS011;333;48.800;9.530;2022-10-31T06:20:25;7.00;;;6.40;;
2259;SDS011;333;48.800;9.530;2022-10-31T06:22:52;14.63;;;7.87;;
2259;SDS011;333;48.800;9.530;2022-10-31T06:25:19;7.50;;;6.60;;
2259;SDS011;333;48.800;9.530;2022-10-31T06:27:46;9.73;;;6.70;;
2259;SDS011;333;48.800;9.530;2022-10-31T06:30:14;8.90;;;7.90;;
2259;SDS011;333;48.800;9.530;2022-10-31T06:32:42;7.87;;;6.20;;
2259;SDS011;333;48.800;9.530;2022-10-31T06:35:09;8.00;;;6.77;;
2259;SDS011;333;48.800;9.530;2022-10-31T06:37:37;11.30;;;6.20;;
2259;SDS011;333;48.800;9.530;2022-10-31T06:40:04;10.00;;;7.43;;
2259;SDS011;333;48.800;9.530;2022-10-31T06:42:32;8.17;;;6.90;;
2259;SDS011;333;48.800;9.530;2022-10-31T06:44:59;9.33;;;6.93;;
2259;SDS011;333;48.800;9.530;2022-10-31T06:47:26;7.00;;;6.30;;
2259;SDS011;333;48.800;9.530;2022-10-31T06:49:54;9.00;;;7.03;;
2259;SDS011;333;48.800;9.530;2022-10-31T06:52:22;7.60;;;6.70;;
2259;SDS011;333;48.800;9.530;2022-10-31T06:54:49;8.60;;;7.30;;
2259;SDS011;333;48.800;9.530;2022-10-31T06:57:16;9.40;;;7.10;;
2259;SDS011;333;48.800;9.530;2022-10-31T06:59:43;7.87;;;6.80;;
2259;SDS011;333;48.800;9.530;2022-10-31T07:02:11;9.77;;;7.10;;
2259;SDS011;333;48.800;9.530;2022-10-31T07:04:38;12.30;;;9.13;;
2259;SDS011;333;48.800;9.530;2022-10-31T07:07:07;9.97;;;8.57;;
2259;SDS011;333;48.800;9.530;2022-10-31T07:09:34;9.50;;;8.20;;
2259;SDS011;333;48.800;9.530;2022-10-31T07:12:01;10.10;;;9.10;;
2259;SDS011;333;48.800;9.530;2022-10-31T07:14:28;10.17;;;8.93;;
2259;SDS011;333;48.800;9.530;2022-10-31T07:16:55;9.13;;;8.20;;
2259;SDS011;333;48.800;9.530;2022-10-31T07:19:22;14.40;;;11.30;;
2259;SDS011;333;48.800;9.530;2022-10-31T07:21:50;14.63;;;12.90;;
2259;SDS011;333;48.800;9.530;2022-10-31T07:24:18;11.60;;;10.00;;
2259;SDS011;333;48.800;9.530;2022-10-31T07:26:45;13.57;;;9.10;;
2259;SDS011;333;48.800;9.530;2022-10-31T07:29:14;11.33;;;9.80;;
2259;SDS011;333;48.800;9.530;2022-10-31T07:31:41;9.00;;;8.07;;
2259;SDS011;333;48.800;9.530;2022-10-31T07:34:09;10.70;;;9.47;;
2259;SDS011;333;48.800;9.530;2022-10-31T07:36:36;13.53;;;11.40;;
2259;SDS011;333;48.800;9.530;2022-10-31T07:39:03;16.60;;;13.00;;
2259;SDS011;333;48.800;9.530;2022-10-31T07:41:32;16.83;;;11.80;;
2259;SDS011;333;48.800;9.530;2022-10-31T07:43:59;16.60;;;11.10;;
2259;SDS011;333;48.800;9.530;2022-10-31T07:46:26;11.70;;;10.40;;
2259;SDS011;333;48.800;9.530;2022-10-31T07:48:53;13.03;;;10.83;;
2259;SDS011;333;48.800;9.530;2022-10-31T07:51:21;16.77;;;10.27;;
2259;SDS011;333;48.800;9.530;2022-10-31T07:53:49;12.30;;;10.70;;
2259;SDS011;333;48.800;9.530;2022-10-31T07:56:16;11.27;;;10.00;;
2259;SDS011;333;48.800;9.530;2022-10-31T07:58:44;13.50;;;9.50;;
2259;SDS011;333;48.800;9.530;2022-10-31T08:01:12;9.97;;;8.80;;
2259;SDS011;333;48.800;9.530;2022-10-31T08:03:39;15.00;;;10.67;;
2259;SDS011;333;48.800;9.530;2022-10-31T08:06:06;12.93;;;11.10;;
2259;SDS011;333;48.800;9.530;2022-10-31T08:08:33;11.83;;;9.90;;
2259;SDS011;333;48.800;9.530;2022-10-31T08:11:01;12.97;;;10.40;;
2259;SDS011;333;48.800;9.530;2022-10-31T08:13:28;13.10;;;10.43;;
2259;SDS011;333;48.800;9.530;2022-10-31T08:15:58;14.13;;;10.20;;
2259;SDS011;333;48.800;9.530;2022-10-31T08:18:28;12.80;;;10.70;;
2259;SDS011;333;48.800;9.530;2022-10-31T08:20:56;17.73;;;9.67;;
2259;SDS011;333;48.800;9.530;2022-10-31T08:23:23;14.00;;;10.13;;
2259;SDS011;333;48.800;9.530;2022-10-31T08:25:50;10.90;;;9.90;;
2259;SDS011;333;48.800;9.530;2022-10-31T08:28:17;13.13;;;10.30;;
2259;SDS011;333;48.800;9.530;2022-10-31T08:30:44;16.93;;;11.27;;
2259;SDS011;333;48.800;9.530;2022-10-31T08:33:14;12.10;;;10.80;;
2259;SDS011;333;48.800;9.530;2022-10-31T08:35:42;10.23;;;9.23;;
2259;SDS011;333;48.800;9.530;2022-10-31T08:38:09;11.07;;;9.93;;
2259;SDS011;333;48.800;9.530;2022-10-31T08:40:37;9.17;;;8.30;;
2259;SDS011;333;48.800;9.530;2022-10-31T08:43:04;10.30;;;9.30;;
2259;SDS011;333;48.800;9.530;2022-10-31T08:45:32;10.43;;;8.27;;
2259;SDS011;333;48.800;9.530;2022-10-31T08:48:00;8.77;;;7.83;;
2259;SDS011;333;48.800;9.530;2022-10-31T08:50:29;8.03;;;7.33;;
2259;SDS011;333;48.800;9.530;2022-10-31T08:53:00;15.13;;;10.30;;
2259;SDS011;333;48.800;9.530;2022-10-31T08:55:27;10.70;;;9.20;;
2259;SDS011;333;48.800;9.530;2022-10-31T08:57:54;9.70;;;7.90;;
2259;SDS011;333;48.800;9.530;2022-10-31T09:00:22;10.07;;;8.40;;
2259;SDS011;333;48.800;9.530;2022-10-31T09:02:54;11.57;;;8.33;;
2259;SDS011;333;48.800;9.530;2022-10-31T09:05:21;9.33;;;8.20;;
2259;SDS011;333;48.800;9.530;2022-10-31T09:07:50;8.53;;;7.70;;
2259;SDS011;333;48.800;9.530;2022-10-31T09:10:17;8.77;;;7.97;;
2259;SDS011;333;48.800;9.530;2022-10-31T09:12:44;8.63;;;7.83;;
2259;SDS011;333;48.800;9.530;2022-10-31T09:15:11;9.80;;;8.90;;
2259;SDS011;333;48.800;9.530;2022-10-31T09:17:39;9.60;;;8.20;;
2259;SDS011;333;48.800;9.530;2022-10-31T09:20:06;11.43;;;10.23;;
2259;SDS011;333;48.800;9.530;2022-10-31T09:22:34;13.00;;;7.90;;
2259;SDS011;333;48.800;9.530;2022-10-31T09:25:02;9.10;;;7.90;;
2259;SDS011;333;48.800;9.530;2022-10-31T09:27:29;9.77;;;7.20;;
2259;SDS011;333;48.800;9.530;2022-10-31T09:29:57;10.57;;;9.47;;
2259;SDS011;333;48.800;9.530;2022-10-31T09:32:24;10.00;;;7.40;;
2259;SDS011;333;48.800;9.530;2022-10-31T09:34:51;8.13;;;7.30;;
2259;SDS011;333;48.800;9.530;2022-10-31T09:37:18;9.27;;;7.13;;
2259;SDS011;333;48.800;9.530;2022-10-31T09:39:46;14.17;;;8.40;;
2259;SDS011;333;48.800;9.530;2022-10-31T09:45:16;9.87;;;6.47;;
2259;SDS011;333;48.800;9.530;2022-10-31T09:47:51;8.67;;;7.60;;
2259;SDS011;333;48.800;9.530;2022-10-31T09:50:24;9.27;;;6.63;;
2259;SDS011;333;48.800;9.530;2022-10-31T09:52:54;7.10;;;6.13;;
2259;SDS011;333;48.800;9.530;2022-10-31T09:55:26;9.67;;;6.80;;
2259;SDS011;333;48.800;9.530;2022-10-31T09:57:55;10.40;;;6.70;;
2259;SDS011;333;48.800;9.530;2022-10-31T10:00:23;7.47;;;6.50;;
2259;SDS011;333;48.800;9.530;2022-10-31T10:02:51;8.93;;;6.80;;
2259;SDS011;333;48.800;9.530;2022-10-31T10:05:20;8.27;;;6.83;;
2259;SDS011;333;48.800;9.530;2022-10-31T10:07:49;13.00;;;7.20;;
2259;SDS011;333;48.800;9.530;2022-10-31T10:10:22;8.70;;;6.33;;
2259;SDS011;333;48.800;9.530;2022-10-31T10:12:59;8.47;;;6.83;;
2259;SDS011;333;48.800;9.530;2022-10-31T10:15:39;10.13;;;7.77;;
2259;SDS011;333;48.800;9.530;2022-10-31T10:18:13;8.13;;;6.93;;
2259;SDS011;333;48.800;9.530;2022-10-31T10:20:50;7.37;;;6.17;;
2259;SDS011;333;48.800;9.530;2022-10-31T10:23:23;6.40;;;5.67;;
2259;SDS011;333;48.800;9.530;2022-10-31T10:25:56;7.60;;;6.30;;
2259;SDS011;333;48.800;9.530;2022-10-31T10:28:27;10.57;;;6.27;;
2259;SDS011;333;48.800;9.530;2022-10-31T10:31:01;8.00;;;7.17;;
2259;SDS011;333;48.800;9.530;2022-10-31T10:33:30;11.60;;;6.37;;
2259;SDS011;333;48.800;9.530;2022-10-31T10:35:59;7.20;;;5.77;;
2259;SDS011;333;48.800;9.530;2022-10-31T10:38:27;9.37;;;5.83;;
2259;SDS011;333;48.800;9.530;2022-10-31T10:40:55;10.07;;;6.00;;
2259;SDS011;333;48.800;9.530;2022-10-31T10:43:26;9.73;;;5.30;;
2259;SDS011;333;48.800;9.530;2022-10-31T10:46:17;11.70;;;5.33;;
2259;SDS011;333;48.800;9.530;2022-10-31T10:49:05;6.63;;;5.90;;
2259;SDS011;333;48.800;9.530;2022-10-31T10:51:44;9.17;;;5.90;;
2259;SDS011;333;48.800;9.530;2022-10-31T10:54:19;6.37;;;5.83;;
2259;SDS011;333;48.800;9.530;2022-10-31T10:56:50;7.20;;;5.60;;
2259;SDS011;333;48.800;9.530;2022-10-31T10:59:20;6.90;;;5.77;;
2259;SDS011;333;48.800;9.530;2022-10-31T11:01:49;7.50;;;5.17;;
2259;SDS011;333;48.800;9.530;2022-10-31T11:04:25;8.20;;;4.87;;
2259;SDS011;333;48.800;9.530;2022-10-31T11:06:56;6.70;;;5.60;;
2259;SDS011;333;48.800;9.530;2022-10-31T11:09:24;7.80;;;5.93;;
2259;SDS011;333;48.800;9.530;2022-10-31T11:11:51;6.10;;;5.47;;
2259;SDS011;333;48.800;9.530;2022-10-31T11:14:18;8.73;;;5.90;;
2259;SDS011;333;48.800;9.530;2022-10-31T11:16:47;8.80;;;5.90;;
2259;SDS011;333;48.800;9.530;2022-10-31T11:19:17;7.93;;;5.93;;
2259;SDS011;333;48.800;9.530;2022-10-31T11:21:45;8.77;;;6.30;;
2259;SDS011;333;48.800;9.530;2022-10-31T11:24:13;9.23;;;6.13;;
2259;SDS011;333;48.800;9.530;2022-10-31T11:26:42;13.10;;;6.30;;
2259;SDS011;333;48.800;9.530;2022-10-31T11:29:13;9.17;;;5.07;;
2259;SDS011;333;48.800;9.530;2022-10-31T11:31:41;6.13;;;4.30;;
2259;SDS011;333;48.800;9.530;2022-10-31T11:34:13;5.87;;;4.90;;
2259;SDS011;333;48.800;9.530;2022-10-31T11:36:43;7.60;;;6.13;;
2259;SDS011;333;48.800;9.530;2022-10-31T11:39:15;6.00;;;5.23;;
2259;SDS011;333;48.800;9.530;2022-10-31T11:41:44;8.20;;;5.33;;
2259;SDS011;333;48.800;9.530;2022-10-31T11:44:12;8.53;;;5.10;;
2259;SDS011;333;48.800;9.530;2022-10-31T11:46:40;4.80;;;4.40;;
2259;SDS011;333;48.800;9.530;2022-10-31T11:49:12;5.57;;;5.07;;
2259;SDS011;333;48.800;9.530;2022-10-31T11:51:41;7.53;;;5.30;;
2259;SDS011;333;48.800;9.530;2022-10-31T11:54:17;8.37;;;5.23;;
2259;SDS011;333;48.800;9.530;2022-10-31T11:56:46;6.90;;;5.60;;
2259;SDS011;333;48.800;9.530;2022-10-31T11:59:23;6.33;;;5.40;;
2259;SDS011;333;48.800;9.530;2022-10-31T12:01:52;9.90;;;5.10;;
2259;SDS011;333;48.800;9.530;2022-10-31T12:04:21;12.77;;;5.97;;
2259;SDS011;333;48.800;9.530;2022-10-31T12:06:50;7.07;;;5.73;;
2259;SDS011;333;48.800;9.530;2022-10-31T12:09:20;8.93;;;6.53;;
2259;SDS011;333;48.800;9.530;2022-10-31T12:11:52;8.20;;;7.03;;
2259;SDS011;333;48.800;9.530;2022-10-31T12:14:26;8.00;;;7.10;;
2259;SDS011;333;48.800;9.530;2022-10-31T12:16:56;9.53;;;8.07;;
2259;SDS011;333;48.800;9.530;2022-10-31T12:19:30;7.53;;;6.83;;
2259;SDS011;333;48.800;9.530;2022-10-31T12:22:02;8.67;;;7.10;;
2259;SDS011;333;48.800;9.530;2022-10-31T12:24:38;11.47;;;6.90;;
2259;SDS011;333;48.800;9.530;2022-10-31T12:27:12;7.27;;;6.67;;
2259;SDS011;333;48.800;9.530;2022-10-31T12:29:47;8.40;;;6.50;;
2259;SDS011;333;48.800;9.530;2022-10-31T12:32:20;10.23;;;6.40;;
2259;SDS011;333;48.800;9.530;2022-10-31T12:34:51;7.40;;;5.60;;
2259;SDS011;333;48.800;9.530;2022-10-31T12:37:24;8.60;;;5.57;;
2259;SDS011;333;48.800;9.530;2022-10-31T12:39:57;14.60;;;5.33;;
2259;SDS011;333;48.800;9.530;2022-10-31T12:42:30;8.17;;;5.20;;
2259;SDS011;333;48.800;9.530;2022-10-31T12:47:59;6.00;;;5.27;;
2259;SDS011;333;48.800;9.530;2022-10-31T12:50:47;6.43;;;5.50;;
2259;SDS011;333;48.800;9.530;2022-10-31T12:53:21;6.10;;;5.00;;
2259;SDS011;333;48.800;9.530;2022-10-31T12:55:55;8.00;;;5.30;;
2259;SDS011;333;48.800;9.530;2022-10-31T12:58:26;6.70;;;4.60;;
2259;SDS011;333;48.800;9.530;2022-10-31T13:00:58;9.20;;;4.73;;
2259;SDS011;333;48.800;9.530;2022-10-31T13:03:30;6.40;;;5.03;;
2259;SDS011;333;48.800;9.530;2022-10-31T13:06:02;6.73;;;4.90;;
2259;SDS011;333;48.800;9.530;2022-10-31T13:08:40;7.70;;;5.60;;
2259;SDS011;333;48.800;9.530;2022-10-31T13:11:10;8.57;;;4.50;;
2259;SDS011;333;48.800;9.530;2022-10-31T13:13:40;6.83;;;4.17;;
2259;SDS011;333;48.800;9.530;2022-10-31T13:16:10;5.97;;;5.17;;
2259;SDS011;333;48.800;9.530;2022-10-31T13:18:39;7.10;;;5.20;;
2259;SDS011;333;48.800;9.530;2022-10-31T13:21:08;9.40;;;5.23;;
2259;SDS011;333;48.800;9.530;2022-10-31T13:23:37;8.40;;;5.57;;
2259;SDS011;333;48.800;9.530;2022-10-31T13:26:06;8.07;;;5.37;;
2259;SDS011;333;48.800;9.530;2022-10-31T13:28:38;5.90;;;5.30;;
2259;SDS011;333;48.800;9.530;2022-10-31T13:31:07;6.87;;;6.20;;
2259;SDS011;333;48.800;9.530;2022-10-31T13:33:35;6.83;;;5.80;;
2259;SDS011;333;48.800;9.530;2022-10-31T13:36:08;10.50;;;5.63;;
2259;SDS011;333;48.800;9.530;2022-10-31T13:38:39;11.37;;;7.20;;
2259;SDS011;333;48.800;9.530;2022-10-31T13:41:10;6.90;;;5.67;;
2259;SDS011;333;48.800;9.530;2022-10-31T13:43:45;6.27;;;5.67;;
2259;SDS011;333;48.800;9.530;2022-10-31T13:46:21;7.10;;;5.20;;
2259;SDS011;333;48.800;9.530;2022-10-31T13:48:49;5.80;;;5.20;;
2259;SDS011;333;48.800;9.530;2022-10-31T13:51:24;8.10;;;5.80;;
2259;SDS011;333;48.800;9.530;2022-10-31T13:53:56;6.83;;;4.93;;
2259;SDS011;333;48.800;9.530;2022-10-31T13:56:24;9.33;;;6.37;;
2259;SDS011;333;48.800;9.530;2022-10-31T13:58:58;7.87;;;5.77;;
2259;SDS011;333;48.800;9.530;2022-10-31T14:01:26;6.80;;;5.30;;
2259;SDS011;333;48.800;9.530;2022-10-31T14:03:58;9.03;;;6.10;;
2259;SDS011;333;48.800;9.530;2022-10-31T14:06:44;5.70;;;5.20;;
2259;SDS011;333;48.800;9.530;2022-10-31T14:09:23;10.70;;;5.43;;
2259;SDS011;333;48.800;9.530;2022-10-31T14:11:51;6.80;;;6.13;;
2259;SDS011;333;48.800;9.530;2022-10-31T14:14:20;9.93;;;6.40;;
2259;SDS011;333;48.800;9.530;2022-10-31T14:16:53;8.40;;;6.20;;
2259;SDS011;333;48.800;9.530;2022-10-31T14:19:22;6.63;;;6.03;;
2259;SDS011;333;48.800;9.530;2022-10-31T14:21:49;11.20;;;7.57;;
2259;SDS011;333;48.800;9.530;2022-10-31T14:24:30;8.40;;;5.93;;
2259;SDS011;333;48.800;9.530;2022-10-31T14:26:58;8.93;;;6.50;;
2259;SDS011;333;48.800;9.530;2022-10-31T14:29:27;6.53;;;5.50;;
2259;SDS011;333;48.800;9.530;2022-10-31T14:31:57;5.90;;;5.37;;
2259;SDS011;333;48.800;9.530;2022-10-31T14:34:26;10.77;;;5.83;;
2259;SDS011;333;48.800;9.530;2022-10-31T14:37:01;10.23;;;6.10;;
2259;SDS011;333;48.800;9.530;2022-10-31T14:39:33;7.23;;;5.60;;
2259;SDS011;333;48.800;9.530;2022-10-31T14:42:09;7.77;;;6.20;;
2259;SDS011;333;48.800;9.530;2022-10-31T14:47:33;5.63;;;4.80;;
2259;SDS011;333;48.800;9.530;2022-10-31T14:50:07;7.87;;;5.10;;
2259;SDS011;333;48.800;9.530;2022-10-31T14:52:38;7.30;;;4.87;;
2259;SDS011;333;48.800;9.530;2022-10-31T14:55:07;6.70;;;4.70;;
2259;SDS011;333;48.800;9.530;2022-10-31T14:57:37;7.00;;;4.97;;
2259;SDS011;333;48.800;9.530;2022-10-31T15:00:06;11.87;;;6.60;;
2259;SDS011;333;48.800;9.530;2022-10-31T15:02:36;5.73;;;5.13;;
2259;SDS011;333;48.800;9.530;2022-10-31T15:05:06;11.10;;;5.70;;
2259;SDS011;333;48.800;9.530;2022-10-31T15:07:34;5.93;;;5.40;;
2259;SDS011;333;48.800;9.530;2022-10-31T15:10:05;16.63;;;6.43;;
2259;SDS011;333;48.800;9.530;2022-10-31T15:12:34;6.57;;;5.50;;
2259;SDS011;333;48.800;9.530;2022-10-31T15:15:17;8.77;;;6.20;;
2259;SDS011;333;48.800;9.530;2022-10-31T15:17:47;9.90;;;6.27;;
2259;SDS011;333;48.800;9.530;2022-10-31T15:20:17;9.37;;;6.73;;
2259;SDS011;333;48.800;9.530;2022-10-31T15:22:44;7.93;;;6.13;;
2259;SDS011;333;48.800;9.530;2022-10-31T15:25:14;12.67;;;6.07;;
2259;SDS011;333;48.800;9.530;2022-10-31T15:27:43;12.57;;;7.10;;
2259;SDS011;333;48.800;9.530;2022-10-31T15:30:16;9.20;;;5.80;;
2259;SDS011;333;48.800;9.530;2022-10-31T15:32:43;7.07;;;5.23;;
2259;SDS011;333;48.800;9.530;2022-10-31T15:35:18;4.97;;;4.53;;
2259;SDS011;333;48.800;9.530;2022-10-31T15:37:46;5.70;;;5.03;;
2259;SDS011;333;48.800;9.530;2022-10-31T15:40:14;7.10;;;5.50;;
2259;SDS011;333;48.800;9.530;2022-10-31T15:42:42;7.77;;;5.50;;
2259;SDS011;333;48.800;9.530;2022-10-31T15:45:16;7.97;;;5.53;;
2259;SDS011;333;48.800;9.530;2022-10-31T15:47:45;7.83;;;5.73;;
2259;SDS011;333;48.800;9.530;2022-10-31T15:50:19;5.83;;;5.30;;